Time;durP1;ratioP1;P1;durP2;ratioP2;P2;SDS_P1;SDS_P2;PMS_P1;PMS_P2;Temp;Humidity;BMP_temperature;BMP_pressure;BME280_temperature;BME280_humidity;BME280_pressure;Samples;Min_cycle;Max_cycle;Signal;HPM_P1;HPM_P2
2022/11/25 00:01:06;;;;;;;10.88;5.28;;;;;;;-6.66;77.98;97015.78;6198706;28;20050;-66
2022/11/25 00:04:08;;;;;;;10.13;4.13;;;;;;;-6.57;77.44;97021.84;6198274;28;20440;-66
2022/11/25 00:07:11;;;;;;;13.20;5.20;;;;;;;-6.60;77.93;97026.06;6198071;28;20042;-66
2022/11/25 00:10:15;;;;;;;9.95;4.35;;;;;;;-6.50;77.49;97025.25;6198711;28;20042;-66
2022/11/25 00:13:18;;;;;;;7.00;3.15;;;;;;;-6.46;77.93;97028.69;6198417;28;20559;-66
2022/11/25 00:16:22;;;;;;;17.80;5.47;;;;;;;-6.51;77.63;97025.25;6162552;28;20430;-66
2022/11/25 00:19:25;;;;;;;14.80;5.18;;;;;;;-6.47;78.27;97026.97;6150346;28;20059;-65
2022/11/25 00:22:29;;;;;;;15.73;4.63;;;;;;;-6.39;77.87;97023.59;6149982;28;20171;-66
2022/11/25 00:25:33;;;;;;;12.38;3.95;;;;;;;-6.26;77.77;97041.56;6149639;28;20102;-66
2022/11/25 00:28:37;;;;;;;10.15;3.95;;;;;;;-6.37;78.05;97042.41;6150014;28;20055;-67
2022/11/25 00:31:43;;;;;;;9.35;3.63;;;;;;;-6.34;77.90;97049.22;6150017;29;20421;-66
2022/11/25 00:34:46;;;;;;;6.55;3.47;;;;;;;-6.33;77.95;97051.78;6149994;29;20043;-66
2022/11/25 00:37:48;;;;;;;3.10;2.17;;;;;;;-6.26;77.83;97056.94;6149873;29;20035;-66
2022/11/25 00:44:34;;;;;;;4.75;2.20;;;;;;;-6.13;78.56;97059.53;6149677;29;20039;-66
2022/11/25 00:44:36;;;;;;;3.33;1.95;;;;;;;-6.11;78.17;97057.84;6149575;28;20039;-66
2022/11/25 00:47:43;;;;;;;4.32;2.35;;;;;;;-6.12;78.11;97058.69;6149951;28;20039;-66
2022/11/25 00:50:44;;;;;;;3.92;2.13;;;;;;;-6.04;77.87;97066.41;6149540;29;20042;-65
2022/11/25 00:53:45;;;;;;;7.25;3.65;;;;;;;-6.02;78.08;97061.28;6164252;28;20553;-66
2022/11/25 00:57:15;;;;;;;8.98;3.63;;;;;;;-6.05;77.73;97086.91;6149500;29;20039;-67
2022/11/25 01:00:19;;;;;;;6.25;3.25;;;;;;;-5.93;78.79;97086.94;6148057;28;20561;-66
2022/11/25 01:03:20;;;;;;;7.10;3.10;;;;;;;-5.83;78.54;97095.47;6148997;28;20047;-67
2022/11/25 01:06:25;;;;;;;14.57;4.40;;;;;;;-5.84;78.37;97097.19;6148998;28;20058;-66
2022/11/25 01:09:27;;;;;;;7.82;2.63;;;;;;;-5.82;78.23;97104.88;6148479;28;20479;-66
2022/11/25 01:12:33;;;;;;;6.85;2.90;;;;;;;-5.79;78.62;97115.16;6148972;29;20047;-66
2022/11/25 01:15:39;;;;;;;8.70;3.50;;;;;;;-5.83;78.64;97123.66;6156867;28;20057;-66
2022/11/25 01:18:41;;;;;;;9.80;3.63;;;;;;;-5.91;78.05;97116.81;6197057;28;20049;-66
2022/11/25 01:21:47;;;;;;;11.48;4.13;;;;;;;-5.80;78.29;97139.03;6196851;28;20038;-66
2022/11/25 01:24:50;;;;;;;8.85;3.63;;;;;;;-5.73;78.48;97145.91;6196273;28;20054;-66
2022/11/25 01:27:54;;;;;;;9.88;3.45;;;;;;;-5.72;78.37;97143.38;6197018;28;20421;-66
2022/11/25 01:31:04;;;;;;;9.02;3.35;;;;;;;-5.66;78.29;97158.75;6196873;28;20038;-65
2022/11/25 01:34:18;;;;;;;5.50;2.53;;;;;;;-5.68;78.60;97152.78;6190449;28;20065;-66
2022/11/25 01:37:24;;;;;;;7.40;3.17;;;;;;;-5.64;78.44;97151.06;6196919;28;20050;-66
2022/11/25 01:40:25;;;;;;;7.75;3.33;;;;;;;-5.65;78.95;97149.34;6196672;28;20429;-66
2022/11/25 01:43:32;;;;;;;10.63;3.53;;;;;;;-5.60;78.16;97149.34;6196826;28;20042;-65
2022/11/25 01:46:52;;;;;;;9.15;3.90;;;;;;;-5.54;78.99;97160.50;6195948;28;20137;-65
2022/11/25 01:50:08;;;;;;;13.70;4.47;;;;;;;-5.47;78.87;97164.78;6195919;28;20051;-66
2022/11/25 01:53:18;;;;;;;9.48;3.97;;;;;;;-5.55;78.79;97161.34;6195942;28;20528;-66
2022/11/25 01:56:20;;;;;;;7.80;3.67;;;;;;;-5.55;78.92;97176.72;6196100;28;20364;-66
2022/11/25 01:59:30;;;;;;;13.82;4.10;;;;;;;-5.50;78.73;97166.50;6196730;28;20050;-66
2022/11/25 02:02:32;;;;;;;12.05;4.65;;;;;;;-5.23;78.20;97178.53;6196055;28;20432;-67
2022/11/25 02:05:51;;;;;;;6.72;3.58;;;;;;;-5.27;78.35;97187.06;6213734;28;20046;-66
2022/11/25 02:09:02;;;;;;;6.63;3.30;;;;;;;-5.28;78.04;97191.34;6201239;28;20038;-66
2022/11/25 02:12:04;;;;;;;15.02;4.10;;;;;;;-5.39;78.90;97192.16;6200283;28;20082;-66
2022/11/25 02:15:28;;;;;;;7.43;3.03;;;;;;;-5.32;78.58;97193.88;6183575;28;20050;-66
2022/11/25 02:18:29;;;;;;;;;;;;;;;-5.29;78.09;97191.34;6200405;28;20111;-66
2022/11/25 02:21:45;;;;;;;7.18;2.45;;;;;;;-5.31;79.03;97195.63;6200369;28;19976;-67
2022/11/25 02:24:54;;;;;;;4.57;2.35;;;;;;;-5.30;78.52;97189.63;6200809;28;20385;-66
2022/11/25 02:28:24;;;;;;;10.02;3.33;;;;;;;-5.29;78.12;97186.22;6200561;28;20042;-66
2022/11/25 02:31:25;;;;;;;7.47;2.83;;;;;;;-5.22;78.87;97180.25;6187903;28;20141;-67
2022/11/25 02:34:27;;;;;;;5.88;2.63;;;;;;;-5.36;78.70;97175.06;6200557;28;20034;-67
2022/11/25 02:37:33;;;;;;;6.13;2.47;;;;;;;-5.31;78.49;97185.34;6200608;28;20045;-66
2022/11/25 02:40:45;;;;;;;3.10;2.33;;;;;;;-5.32;78.74;97199.00;6200746;28;20137;-66
2022/11/25 02:43:49;;;;;;;3.25;2.10;;;;;;;-5.36;78.88;97205.00;6199955;28;20513;-67
2022/11/25 02:46:52;;;;;;;2.70;1.85;;;;;;;-5.40;79.01;97216.13;6200249;28;20055;-66
2022/11/25 02:49:59;;;;;;;4.43;2.70;;;;;;;-5.41;79.05;97225.50;6200390;28;20046;-66
2022/11/25 02:53:00;;;;;;;3.60;2.30;;;;;;;-5.42;78.71;97227.19;6199727;28;20533;-67
2022/11/25 02:56:05;;;;;;;3.58;2.40;;;;;;;-5.36;79.25;97243.47;6199267;28;20046;-66
2022/11/25 02:59:09;;;;;;;3.70;2.10;;;;;;;-5.42;79.31;97245.16;6199840;28;20045;-66
2022/11/25 03:02:11;;;;;;;3.05;1.83;;;;;;;-5.48;78.72;97242.56;6199119;28;20058;-67
2022/11/25 03:05:15;;;;;;;5.05;2.38;;;;;;;-5.48;79.16;97252.81;6199642;28;20042;-66
2022/11/25 03:08:21;;;;;;;2.70;2.00;;;;;;;-5.50;79.34;97256.22;6199691;28;20133;-66
2022/11/25 03:14:50;;;;;;;3.45;2.20;;;;;;;-5.55;78.91;97263.03;6198233;28;20084;-65
2022/11/25 03:17:54;;;;;;;2.92;2.35;;;;;;;-5.50;79.26;97277.59;6199355;28;20054;-67
2022/11/25 03:20:58;;;;;;;4.38;2.53;;;;;;;-5.52;79.42;97278.44;6199495;28;20046;-66
2022/11/25 03:23:59;;;;;;;3.30;2.65;;;;;;;-5.56;79.20;97282.69;6199483;28;20042;-66
2022/11/25 03:27:03;;;;;;;2.22;1.88;;;;;;;-5.46;79.86;97305.00;6199253;28;20129;-66
2022/11/25 03:30:10;;;;;;;5.75;2.70;;;;;;;-5.45;79.25;97313.53;6199319;28;20038;-66
2022/11/25 03:33:14;;;;;;;5.35;3.40;;;;;;;-5.49;79.24;97315.22;6199328;28;20050;-66
2022/11/25 03:36:19;;;;;;;5.47;3.13;;;;;;;-5.36;79.14;97323.81;6198663;28;20637;-66
2022/11/25 03:39:23;;;;;;;4.47;3.10;;;;;;;-5.27;79.07;97336.69;6199053;28;20042;-66
2022/11/25 03:42:26;;;;;;;4.30;2.72;;;;;;;-5.32;79.67;97340.09;6199000;28;20034;-66
2022/11/25 03:45:30;;;;;;;3.47;2.67;;;;;;;-5.24;79.50;97341.88;6198929;28;20046;-66
2022/11/25 03:48:31;;;;;;;6.68;3.83;;;;;;;-5.24;79.13;97341.88;6199212;28;20421;-66
2022/11/25 03:51:32;;;;;;;10.10;5.07;;;;;;;-5.22;78.95;97339.28;6198244;28;20050;-66
2022/11/25 03:54:36;;;;;;;6.65;4.40;;;;;;;-5.18;79.25;97343.56;6198968;28;20050;-69
2022/11/25 03:57:40;;;;;;;6.22;4.20;;;;;;;-5.28;79.33;97349.53;6198579;28;20038;-67
2022/11/25 04:00:41;;;;;;;;;;;;;;;-5.23;79.26;97363.22;6198251;28;20062;-66
2022/11/25 04:03:45;;;;;;;4.72;2.75;;;;;;;-5.49;79.06;97335.75;6198701;28;20020;-66
2022/11/25 04:06:49;;;;;;;4.22;2.47;;;;;;;-5.20;79.49;97378.63;6198607;28;20047;-67
2022/11/25 04:09:55;;;;;;;3.13;2.65;;;;;;;-5.21;79.29;97379.47;6197620;28;20092;-66
2022/11/25 04:13:03;;;;;;;6.65;3.30;;;;;;;-5.26;79.12;97389.72;6198488;28;20042;-66
2022/11/25 04:16:25;;;;;;;4.68;3.65;;;;;;;-5.26;78.93;97387.16;6198131;28;20054;-66
2022/11/25 04:19:31;;;;;;;2.50;2.17;;;;;;;-5.20;79.38;97409.44;6198243;28;20052;-67
2022/11/25 04:22:36;;;;;;;7.00;3.03;;;;;;;-5.23;79.45;97425.66;6198150;28;20042;-66
2022/11/25 04:25:44;;;;;;;4.97;2.65;;;;;;;-5.25;79.15;97422.22;6197954;28;20042;-67
2022/11/25 04:28:45;;;;;;;9.07;3.80;;;;;;;-5.21;79.36;97417.94;6197163;28;20136;-66
2022/11/25 04:31:49;;;;;;;4.88;2.88;;;;;;;-5.23;79.57;97417.09;6197757;28;20042;-66
2022/11/25 04:34:51;;;;;;;4.50;2.53;;;;;;;-5.17;79.22;97429.97;6198064;28;20437;-66
2022/11/25 04:37:55;;;;;;;5.82;3.58;;;;;;;-5.04;79.06;97434.31;6197971;28;20420;-66
2022/11/25 04:41:01;;;;;;;5.68;3.67;;;;;;;-5.07;79.17;97443.69;6197626;28;20050;-66
2022/11/25 04:44:04;;;;;;;4.30;2.95;;;;;;;-5.02;79.10;97454.84;6197757;28;20042;-66
2022/11/25 04:47:08;;;;;;;7.53;2.85;;;;;;;-5.04;78.94;97452.28;6197596;28;20046;-66
2022/11/25 04:50:17;;;;;;;6.90;3.28;;;;;;;-4.96;79.16;97466.00;6197541;28;20038;-65
2022/11/25 04:53:21;;;;;;;7.53;3.33;;;;;;;-5.01;79.41;97465.13;6196692;28;20068;-66
2022/11/25 04:56:25;;;;;;;5.18;3.10;;;;;;;-4.93;79.25;97478.00;6197208;28;20050;-67
2022/11/25 04:59:38;;;;;;;4.47;2.63;;;;;;;-4.94;79.41;97489.13;6197268;28;20042;-65
2022/11/25 05:02:42;;;;;;;3.35;2.00;;;;;;;-4.79;79.38;97483.19;6179255;28;20068;-66
2022/11/25 05:05:46;;;;;;;3.88;2.47;;;;;;;-4.74;78.97;97492.66;6197101;28;20467;-67
2022/11/25 05:08:49;;;;;;;4.95;2.53;;;;;;;-4.79;79.12;97501.19;6196901;28;20209;-65
2022/11/25 05:11:50;;;;;;;4.28;3.17;;;;;;;-4.78;78.72;97513.19;6179590;28;20401;-66
2022/11/25 05:14:52;;;;;;;4.75;2.65;;;;;;;-4.77;79.06;97517.47;6197029;28;20520;-66
2022/11/25 05:17:53;;;;;;;10.50;5.10;;;;;;;-4.73;79.09;97529.44;6195889;28;20399;-66
2022/11/25 05:21:04;;;;;;;10.82;5.93;;;;;;;-4.71;78.83;97532.88;6196958;28;20046;-66
2022/11/25 05:24:08;;;;;;;17.70;8.80;;;;;;;-4.79;78.70;97540.53;6196916;28;20046;-66
2022/11/25 05:27:12;;;;;;;13.05;7.97;;;;;;;-4.68;78.74;97543.19;6196197;28;20057;-67
2022/11/25 05:30:16;;;;;;;8.68;5.38;;;;;;;-4.67;78.53;97549.16;6196049;28;20058;-66
2022/11/25 05:33:21;;;;;;;5.88;3.45;;;;;;;-4.67;78.61;97550.06;6196054;28;20057;-66
2022/11/25 05:36:24;;;;;;;8.07;4.13;;;;;;;-4.69;78.56;97567.16;6195758;28;20057;-66
2022/11/25 05:39:28;;;;;;;5.53;4.30;;;;;;;-4.64;78.59;97562.91;6197222;28;20042;-66
2022/11/25 05:42:30;;;;;;;7.15;3.83;;;;;;;-4.66;78.83;97574.88;6200938;28;20562;-67
2022/11/25 05:45:31;;;;;;;7.45;4.25;;;;;;;-4.66;78.83;97580.00;6201003;28;20046;-67
2022/11/25 05:48:33;;;;;;;9.50;6.00;;;;;;;-4.70;78.69;97575.69;6201423;28;20584;-66
2022/11/25 05:51:34;;;;;;;9.93;5.68;;;;;;;-4.62;78.49;97589.44;6200928;28;20050;-67
2022/11/25 05:54:41;;;;;;;4.13;3.50;;;;;;;-4.51;78.50;97597.22;6201683;28;20045;-66
2022/11/25 05:57:44;;;;;;;4.10;2.55;;;;;;;-4.59;78.35;97604.00;6200487;28;20050;-66
2022/11/25 06:00:53;;;;;;;7.18;3.67;;;;;;;-4.56;78.87;97604.91;6201376;28;20196;-66
2022/11/25 06:04:00;;;;;;;5.05;3.83;;;;;;;-4.56;78.46;97610.03;6201029;28;20050;-65
2022/11/25 06:07:04;;;;;;;4.53;3.55;;;;;;;-4.42;78.70;97617.81;6201321;28;20050;-66
2022/11/25 06:10:08;;;;;;;8.52;6.03;;;;;;;-4.40;78.42;97625.53;6201233;28;20501;-67
2022/11/25 06:13:14;;;;;;;6.95;5.35;;;;;;;-4.32;78.49;97634.16;6200419;28;20050;-66
2022/11/25 06:16:20;;;;;;;6.13;4.28;;;;;;;-4.36;78.64;97632.41;6199946;28;20146;-67
2022/11/25 06:19:24;;;;;;;5.65;3.67;;;;;;;-4.35;78.67;97634.13;6200820;28;20046;-66
2022/11/25 06:22:26;;;;;;;4.05;3.45;;;;;;;-4.33;78.25;97637.56;6200793;28;20587;-67
2022/11/25 06:25:32;;;;;;;3.13;2.22;;;;;;;-4.28;78.77;97651.28;6200890;28;20065;-67
2022/11/25 06:28:36;;;;;;;4.20;3.00;;;;;;;-4.28;78.43;97656.44;6200503;28;20054;-66
2022/11/25 06:31:37;;;;;;;6.35;3.55;;;;;;;-4.28;78.10;97657.28;6200065;28;20141;-67
2022/11/25 06:34:43;;;;;;;;;;;;;;;-4.22;77.81;97674.44;6201223;28;20039;-67
2022/11/25 06:37:44;;;;;;;6.18;3.03;;;;;;;-4.24;78.36;97678.75;6182481;28;20307;-67
2022/11/25 06:40:51;;;;;;;5.97;4.57;;;;;;;-4.28;78.14;97674.41;6198890;28;20425;-67
2022/11/25 06:43:52;;;;;;;5.97;3.97;;;;;;;-4.19;78.18;97697.63;6199723;28;20053;-66
2022/11/25 06:46:56;;;;;;;4.78;2.90;;;;;;;-4.21;78.23;97712.16;6199592;28;20046;-66
2022/11/25 06:50:00;;;;;;;6.03;3.80;;;;;;;-4.10;78.28;97710.53;6200015;28;20428;-66
2022/11/25 06:53:03;;;;;;;3.97;2.25;;;;;;;-4.15;78.26;97729.34;6200111;28;20128;-66
2022/11/25 06:56:07;;;;;;;4.18;2.47;;;;;;;-4.26;78.19;97721.53;6199305;28;20047;-66
2022/11/25 06:59:13;;;;;;;5.63;2.70;;;;;;;-4.16;78.10;97733.63;6200101;28;20080;-67
2022/11/25 07:02:17;;;;;;;4.40;2.50;;;;;;;-4.18;78.39;97730.19;6199962;28;20038;-67
2022/11/25 07:05:24;;;;;;;5.40;2.70;;;;;;;-4.15;77.83;97740.47;6199964;28;20497;-66
2022/11/25 07:08:29;;;;;;;4.00;2.42;;;;;;;-3.97;78.08;97746.59;6200095;28;20050;-67
2022/11/25 07:11:39;;;;;;;6.28;3.30;;;;;;;-4.04;78.38;97755.13;6199762;28;20035;-67
2022/11/25 07:14:40;;;;;;;5.25;2.42;;;;;;;-4.09;78.13;97758.50;6199496;28;20564;-66
2022/11/25 07:17:47;;;;;;;2.33;1.77;;;;;;;-4.09;77.95;97761.06;6199641;28;20058;-67
2022/11/25 07:20:55;;;;;;;4.15;2.38;;;;;;;-3.99;77.86;97779.13;6199583;28;20500;-66
2022/11/25 07:24:04;;;;;;;4.20;2.83;;;;;;;-3.96;78.03;97794.56;6199717;28;20042;-66
2022/11/25 07:27:08;;;;;;;4.35;2.60;;;;;;;-3.96;78.06;97785.16;6198464;28;20129;-66
2022/11/25 07:30:10;;;;;;;5.78;2.20;;;;;;;-3.93;78.16;97792.91;6198575;28;20046;-66
2022/11/25 07:33:11;;;;;;;3.85;1.90;;;;;;;-3.86;77.88;97789.50;6199145;28;20049;-66
2022/11/25 07:36:14;;;;;;;5.50;2.92;;;;;;;-3.78;77.76;97799.84;6199018;28;20177;-65
2022/11/25 07:39:26;;;;;;;4.68;2.97;;;;;;;-3.71;77.68;97795.59;6198742;28;20065;-66
2022/11/25 07:42:30;;;;;;;;;;;;;;;-3.62;77.26;97806.81;6199201;28;20064;-66
2022/11/25 07:45:31;;;;;;;3.92;1.88;;;;;;;-3.70;77.61;97813.63;6197841;28;19917;-66
2022/11/25 07:48:36;;;;;;;;;;;;;;;-3.66;77.05;97817.06;6198761;28;20050;-66
2022/11/25 07:51:48;;;;;;;;;;;;;;;-3.64;77.22;97820.53;6198820;28;20415;-66
2022/11/25 07:54:52;;;;;;;3.50;1.85;;;;;;;-3.77;77.35;97821.28;6197528;28;19917;-66
2022/11/25 07:58:00;;;;;;;2.20;1.80;;;;;;;-3.94;77.74;97806.59;6198779;28;20078;-66
2022/11/25 08:01:09;;;;;;;3.95;2.35;;;;;;;-3.75;78.01;97828.16;6198770;28;20548;-66
2022/11/25 08:04:14;;;;;;;4.72;2.20;;;;;;;-3.77;77.75;97835.00;6196900;28;20055;-67
2022/11/25 08:07:16;;;;;;;9.32;3.05;;;;;;;-3.86;77.84;97838.34;6198018;28;20078;-66
2022/11/25 08:10:20;;;;;;;3.90;2.42;;;;;;;-3.87;77.96;97846.06;6198372;28;20137;-67
2022/11/25 08:13:28;;;;;;;4.45;2.35;;;;;;;-3.90;77.75;97848.63;6197091;28;20076;-67
2022/11/25 08:16:33;;;;;;;5.15;2.58;;;;;;;-3.83;78.13;97855.53;6197453;28;20069;-66
2022/11/25 08:19:36;;;;;;;3.72;2.30;;;;;;;-3.81;78.13;97851.25;6198150;28;20050;-66
2022/11/25 08:22:38;;;;;;;5.82;3.20;;;;;;;-3.86;78.24;97856.34;6197374;28;20046;-67
2022/11/25 08:25:42;;;;;;;6.15;3.28;;;;;;;-3.87;77.87;97853.78;6198153;28;20049;-66
2022/11/25 08:28:47;;;;;;;8.00;3.92;;;;;;;-3.84;77.93;97869.25;6197971;28;20069;-66
2022/11/25 08:31:57;;;;;;;4.97;2.95;;;;;;;-3.87;77.85;97869.22;6197724;28;20042;-67
2022/11/25 08:35:01;;;;;;;5.57;2.90;;;;;;;-3.85;77.61;97885.50;6197703;28;20390;-66
2022/11/25 08:38:06;;;;;;;4.78;2.97;;;;;;;-3.85;77.70;97870.06;6197484;28;20042;-66
2022/11/25 08:41:13;;;;;;;5.05;2.53;;;;;;;-3.80;77.86;97876.13;6196754;28;20212;-66
2022/11/25 08:44:16;;;;;;;4.32;2.70;;;;;;;-3.76;77.88;97888.16;6196522;28;20047;-66
2022/11/25 08:47:20;;;;;;;5.55;2.97;;;;;;;-3.86;77.42;97886.34;6197080;28;20057;-66
2022/11/25 08:50:25;;;;;;;4.65;2.53;;;;;;;-3.82;77.55;97893.28;6197055;28;20054;-66
2022/11/25 08:53:26;;;;;;;7.03;3.10;;;;;;;-3.78;77.63;97889.84;6196459;28;20042;-66
2022/11/25 08:56:31;;;;;;;6.07;3.25;;;;;;;-3.76;77.95;97892.47;6196954;28;20054;-66
2022/11/25 08:59:37;;;;;;;4.75;2.92;;;;;;;-3.70;77.48;97908.78;6197176;28;20049;-66
2022/11/25 09:02:39;;;;;;;8.07;4.43;;;;;;;-3.77;77.47;97917.28;6179817;28;20480;-67
2022/11/25 09:05:45;;;;;;;4.05;2.95;;;;;;;-3.79;77.63;97919.00;6197292;28;20129;-67
2022/11/25 09:08:49;;;;;;;6.25;3.47;;;;;;;-3.78;77.56;97936.16;6196852;28;20492;-66
2022/11/25 09:11:51;;;;;;;6.18;3.63;;;;;;;-3.73;76.87;97939.63;6196218;28;20133;-66
2022/11/25 09:14:55;;;;;;;12.43;3.50;;;;;;;-3.78;77.07;97945.56;6196073;28;20049;-66
2022/11/25 09:18:01;;;;;;;7.05;3.28;;;;;;;-3.80;77.17;97953.28;6178405;28;20056;-67
2022/11/25 09:21:12;;;;;;;5.63;3.08;;;;;;;-3.81;77.02;97961.84;6195764;28;20058;-66
2022/11/25 09:24:18;;;;;;;5.00;2.88;;;;;;;-3.87;77.08;97948.94;6196731;28;20046;-66
2022/11/25 09:27:20;;;;;;;6.45;2.63;;;;;;;-3.75;77.22;97963.59;6195798;28;20045;-67
2022/11/25 09:30:26;;;;;;;4.95;3.13;;;;;;;-3.72;77.26;97982.50;6196445;28;20576;-66
2022/11/25 09:33:31;;;;;;;6.80;3.08;;;;;;;-3.83;76.93;97963.53;6196431;28;20038;-66
2022/11/25 09:36:32;;;;;;;5.05;3.13;;;;;;;-3.80;77.27;97973.84;6178583;28;20544;-66
2022/11/25 09:39:35;;;;;;;6.18;3.40;;;;;;;-3.77;77.05;97976.44;6196677;28;20046;-66
2022/11/25 09:46:40;;;;;;;8.77;3.50;;;;;;;-3.79;77.31;97984.97;6195608;28;20047;-66
2022/11/25 09:49:47;;;;;;;4.85;2.72;;;;;;;-3.79;77.20;97996.16;6196611;28;20042;-67
2022/11/25 09:53:13;;;;;;;5.20;2.53;;;;;;;-3.79;77.06;98001.31;6196324;28;20137;-66
2022/11/25 09:56:21;;;;;;;5.10;2.78;;;;;;;-3.85;76.95;98003.78;6196562;28;20128;-66
2022/11/25 09:59:37;;;;;;;5.22;2.67;;;;;;;-3.87;76.95;98018.34;6196611;28;20050;-67
2022/11/25 10:03:05;;;;;;;4.20;2.67;;;;;;;-3.85;76.94;98016.63;6196570;28;20425;-66
2022/11/25 10:06:19;;;;;;;6.85;2.92;;;;;;;-3.91;77.27;98030.28;6196363;28;20081;-66
2022/11/25 10:09:28;;;;;;;9.63;3.65;;;;;;;-3.89;76.87;98041.47;6196265;28;20038;-67
2022/11/25 10:12:43;;;;;;;6.82;4.18;;;;;;;-4.00;77.15;98044.78;6196291;28;20185;-66
2022/11/25 10:15:53;;;;;;;4.05;2.55;;;;;;;-3.95;76.93;98045.69;6195402;28;20085;-66
2022/11/25 10:19:26;;;;;;;4.60;3.05;;;;;;;-3.93;77.09;98064.59;6196384;28;20046;-66
2022/11/25 10:22:40;;;;;;;5.10;3.03;;;;;;;-4.03;77.14;98067.88;6196250;28;20049;-67
2022/11/25 10:25:50;;;;;;;6.75;2.80;;;;;;;-4.10;77.19;98065.25;6196276;28;20433;-66
2022/11/25 10:29:16;;;;;;;4.80;2.50;;;;;;;-4.17;77.32;98071.13;6200522;28;20039;-67
2022/11/25 10:32:26;;;;;;;4.55;2.78;;;;;;;-4.19;77.02;98077.97;6200417;28;20046;-66
2022/11/25 10:35:42;;;;;;;5.03;2.70;;;;;;;-4.20;77.58;98086.50;6200453;28;20165;-67
2022/11/25 10:38:55;;;;;;;4.93;2.28;;;;;;;-4.19;77.17;98098.53;6199772;28;20054;-67
2022/11/25 10:42:07;;;;;;;6.45;3.58;;;;;;;-4.26;77.34;98086.44;6199799;28;20149;-67
2022/11/25 10:45:13;;;;;;;6.47;4.20;;;;;;;-4.24;77.21;98107.91;6200120;28;20046;-66
2022/11/25 10:48:36;;;;;;;10.60;4.45;;;;;;;-4.28;77.30;98109.53;6199886;28;20049;-67
2022/11/25 10:51:47;;;;;;;5.97;2.88;;;;;;;-4.26;77.23;98122.41;6199777;28;20050;-67
2022/11/25 10:55:09;;;;;;;6.07;3.05;;;;;;;-4.27;77.40;98120.72;6199990;28;20784;-67
2022/11/25 10:58:34;;;;;;;7.57;3.35;;;;;;;-4.30;77.25;98133.50;6200057;28;20445;-66
2022/11/25 11:01:39;;;;;;;;;;;;;;;-4.32;77.09;98138.63;6200335;28;20042;-67
2022/11/25 11:05:15;;;;;;;6.10;2.80;;;;;;;-4.36;77.31;98146.25;6199921;28;19921;-67
2022/11/25 11:08:27;;;;;;;7.85;3.13;;;;;;;-4.52;77.34;98151.16;6199907;28;20042;-66
2022/11/25 11:11:29;;;;;;;8.02;3.30;;;;;;;-4.59;77.46;98145.91;6199111;28;20053;-67
2022/11/25 11:14:30;;;;;;;8.23;3.60;;;;;;;-4.65;77.59;98164.66;6199185;28;20054;-67
2022/11/25 11:17:33;;;;;;;6.82;3.65;;;;;;;-4.74;77.75;98174.78;6198205;28;20050;-66
2022/11/25 11:20:35;;;;;;;4.95;3.33;;;;;;;-4.76;77.82;98168.75;6199345;28;20053;-67
2022/11/25 11:23:51;;;;;;;4.85;2.55;;;;;;;-4.87;77.97;98157.44;6199571;28;20042;-66
2022/11/25 11:27:13;;;;;;;10.23;4.88;;;;;;;-4.78;77.72;98180.72;6199151;28;20046;-66
2022/11/25 11:30:22;;;;;;;7.43;4.50;;;;;;;-4.89;77.55;98195.09;6198347;28;20161;-66
2022/11/25 11:33:40;;;;;;;7.82;4.30;;;;;;;-4.95;77.85;98193.28;6198503;28;20053;-66
2022/11/25 11:37:03;;;;;;;7.05;4.20;;;;;;;-5.05;77.62;98196.50;6214410;28;20057;-67
2022/11/25 11:40:07;;;;;;;9.37;4.90;;;;;;;-4.99;77.37;98200.03;6198179;28;20050;-66
2022/11/25 11:43:27;;;;;;;;;;;;;;;-5.13;77.66;98211.75;6198688;28;20058;-66
2022/11/25 11:46:44;;;;;;;10.98;5.65;;;;;;;-5.24;78.14;98213.25;6198598;28;19917;-66
2022/11/25 11:50:08;;;;;;;10.20;4.95;;;;;;;-5.39;77.78;98225.81;6197771;28;20050;-67
2022/11/25 11:53:16;;;;;;;;;;;;;;;-5.47;77.52;98230.78;6189697;28;20118;-67
2022/11/25 11:56:24;;;;;;;10.32;5.07;;;;;;;-5.50;78.66;98241.81;6196844;28;20323;-66
2022/11/25 11:59:54;;;;;;;11.77;4.97;;;;;;;-5.50;78.80;98246.97;6198078;28;20077;-66
2022/11/25 12:03:10;;;;;;;13.00;6.05;;;;;;;-5.53;78.61;98240.91;6198168;28;20038;-66
2022/11/25 12:06:17;;;;;;;8.35;5.30;;;;;;;-5.43;78.14;98253.09;6198111;28;20062;-67
2022/11/25 12:09:27;;;;;;;14.95;5.82;;;;;;;-5.57;78.22;98259.66;6197855;28;20054;-67
2022/11/25 12:13:02;;;;;;;9.27;5.10;;;;;;;-5.65;78.70;98267.16;6198329;28;20114;-67
2022/11/25 12:16:12;;;;;;;7.57;4.22;;;;;;;-5.70;78.45;98269.63;6173072;28;20050;-66
2022/11/25 12:19:25;;;;;;;8.15;4.45;;;;;;;-5.68;78.37;98283.34;6198240;28;20042;-67
2022/11/25 12:22:43;;;;;;;10.27;5.03;;;;;;;-5.65;78.88;98282.56;6198059;28;20050;-67
2022/11/25 12:25:50;;;;;;;6.05;3.88;;;;;;;-5.75;78.29;98272.91;6198114;28;20038;-67
2022/11/25 12:28:58;;;;;;;8.82;4.22;;;;;;;-5.69;78.53;98280.72;6198005;28;20046;-67
2022/11/25 12:32:20;;;;;;;6.70;4.32;;;;;;;-5.57;78.77;98286.16;6197470;28;20528;-66
2022/11/25 12:35:35;;;;;;;6.63;4.22;;;;;;;-5.74;78.15;98295.19;6198082;28;20050;-66
2022/11/25 12:38:53;;;;;;;6.60;3.72;;;;;;;-5.79;78.56;98309.59;6197881;28;20424;-66
2022/11/25 12:42:02;;;;;;;6.50;4.60;;;;;;;-5.98;78.57;98303.19;6196532;28;20197;-66
2022/11/25 12:45:17;;;;;;;7.40;3.80;;;;;;;-5.99;79.04;98307.47;6197311;28;20493;-67
2022/11/25 12:48:21;;;;;;;7.55;4.35;;;;;;;-5.97;78.25;98326.31;6196952;28;20133;-66
2022/11/25 12:51:40;;;;;;;8.00;4.53;;;;;;;-5.96;78.27;98304.97;6197033;28;20042;-67
2022/11/25 12:55:01;;;;;;;9.98;4.97;;;;;;;-5.92;78.46;98319.53;6197223;28;20159;-66
2022/11/25 12:58:29;;;;;;;5.70;3.53;;;;;;;-5.90;78.48;98328.13;6179315;28;20093;-67
2022/11/25 13:02:00;;;;;;;8.00;4.68;;;;;;;-5.91;78.35;98344.34;6197182;28;20050;-67
2022/11/25 13:05:16;;;;;;;7.90;4.35;;;;;;;-5.89;78.13;98345.28;6183531;28;20050;-67
2022/11/25 13:08:51;;;;;;;7.40;3.92;;;;;;;-5.89;78.77;98347.84;6196765;28;20065;-68
2022/11/25 13:12:11;;;;;;;5.78;3.47;;;;;;;-5.97;78.66;98349.38;6197190;28;20489;-68
2022/11/25 13:15:24;;;;;;;6.30;4.40;;;;;;;-6.03;77.96;98351.75;6196913;28;20044;-67
2022/11/25 13:18:30;;;;;;;5.53;3.05;;;;;;;-5.99;78.44;98362.97;6196821;28;20055;-67
2022/11/25 13:21:53;;;;;;;7.00;3.90;;;;;;;-6.07;78.36;98370.47;6196841;28;20429;-66
2022/11/25 13:24:57;;;;;;;6.43;3.90;;;;;;;-6.19;78.38;98371.03;6196133;28;20437;-68
2022/11/25 13:28:00;;;;;;;2.05;1.90;;;;;;;-6.14;78.62;98378.84;6196455;28;20393;-68
2022/11/25 13:31:13;;;;;;;6.65;4.47;;;;;;;-6.25;78.96;98385.41;6196714;28;20054;-67
2022/11/25 13:34:19;;;;;;;6.60;3.63;;;;;;;-6.30;78.76;98386.97;6179811;28;20497;-67
2022/11/25 13:37:36;;;;;;;6.90;4.60;;;;;;;-6.33;78.59;98393.75;6196290;28;20054;-67
2022/11/25 13:40:38;;;;;;;7.80;4.60;;;;;;;-6.36;78.72;98409.03;6178681;28;20054;-66
2022/11/25 13:43:58;;;;;;;6.10;3.92;;;;;;;-6.36;78.40;98403.91;6196219;28;20046;-67
2022/11/25 13:47:27;;;;;;;6.55;3.58;;;;;;;-6.44;79.10;98418.19;6196555;28;20045;-67
2022/11/25 13:50:32;;;;;;;7.22;4.10;;;;;;;-6.49;78.80;98422.31;6196516;28;20042;-66
2022/11/25 13:53:34;;;;;;;5.63;3.35;;;;;;;-6.55;78.91;98427.28;6195657;28;20046;-66
2022/11/25 13:56:40;;;;;;;8.50;3.95;;;;;;;-6.52;78.34;98435.03;6196366;28;20054;-66
2022/11/25 13:59:54;;;;;;;7.10;4.20;;;;;;;-6.50;78.52;98440.22;6196393;28;20047;-67
2022/11/25 14:03:17;;;;;;;11.25;5.28;;;;;;;-6.51;78.56;98448.72;6201278;28;20138;-67
2022/11/25 14:06:36;;;;;;;8.75;5.10;;;;;;;-6.55;78.69;98456.31;6200675;28;20055;-66
2022/11/25 14:09:59;;;;;;;13.73;5.90;;;;;;;-6.65;78.97;98466.25;6201187;28;20053;-66
2022/11/25 14:13:15;;;;;;;12.95;5.70;;;;;;;-6.67;78.37;98465.34;6201028;28;20068;-67
2022/11/25 14:16:46;;;;;;;9.90;5.90;;;;;;;-6.67;78.53;98483.28;6200342;28;20061;-67
2022/11/25 14:19:59;;;;;;;9.82;6.15;;;;;;;-6.73;78.78;98481.41;6200324;28;20112;-67
2022/11/25 14:23:18;;;;;;;9.80;6.07;;;;;;;-6.69;78.58;98502.84;6200157;28;20050;-66
2022/11/25 14:26:34;;;;;;;7.43;4.75;;;;;;;-6.72;78.51;98495.06;6200298;28;20140;-67
2022/11/25 14:29:40;;;;;;;8.82;6.05;;;;;;;-6.64;78.77;98503.84;6200354;28;20552;-67
2022/11/25 14:33:07;;;;;;;8.98;5.82;;;;;;;-6.73;77.96;98506.13;6200114;28;20054;-65
2022/11/25 14:36:18;;;;;;;9.30;5.68;;;;;;;-6.82;78.49;98520.41;6200646;28;20046;-67
2022/11/25 14:39:31;;;;;;;6.93;4.25;;;;;;;-6.85;78.58;98521.97;6200439;28;20050;-67
2022/11/25 14:42:42;;;;;;;7.30;4.18;;;;;;;-6.84;78.85;98528.84;6200412;28;20078;-67
2022/11/25 14:45:43;;;;;;;9.35;4.00;;;;;;;-6.85;78.61;98530.53;6200418;28;20049;-66
2022/11/25 14:48:53;;;;;;;6.68;4.13;;;;;;;-6.75;78.86;98541.91;6199489;28;20046;-67
2022/11/25 14:51:56;;;;;;;10.40;5.10;;;;;;;-6.84;78.74;98542.50;6199528;28;20050;-67
2022/11/25 14:55:03;;;;;;;7.95;4.75;;;;;;;-6.90;78.28;98538.91;6199668;28;20046;-66